Time;durP1;ratioP1;P1;durP2;ratioP2;P2;SDS_P1;SDS_P2;PMS_P1;PMS_P2;Temp;Humidity;BMP_temperature;BMP_pressure;BME280_temperature;BME280_humidity;BME280_pressure;Samples;Min_cycle;Max_cycle;Signal;HPM_P1;HPM_P2
2023/06/21 00:00:33;;;;;;;9.33;7.77;;;;;;;;;;5078540;28;20228;-65
2023/06/21 00:02:59;;;;;;;8.60;7.80;;;;;;;;;;5078697;28;20194;-65
2023/06/21 00:05:25;;;;;;;8.60;7.80;;;;;;;;;;5078809;28;20176;-65
2023/06/21 00:07:53;;;;;;;8.70;7.90;;;;;;;;;;5076372;28;20181;-66
2023/06/21 00:10:23;;;;;;;10.57;8.85;;;;;;;;;;5075009;28;20384;-65
2023/06/21 00:12:49;;;;;;;9.93;8.97;;;;;;;;;;5076761;28;20391;-65
2023/06/21 00:15:15;;;;;;;10.43;9.35;;;;;;;;;;5077445;28;20878;-65
2023/06/21 00:17:41;;;;;;;10.63;9.60;;;;;;;;;;5076422;28;20462;-65
2023/06/21 00:20:09;;;;;;;10.10;9.05;;;;;;;;;;5077099;28;20394;-65
2023/06/21 00:22:35;;;;;;;10.03;9.03;;;;;;;;;;5077915;28;20273;-65
2023/06/21 00:25:01;;;;;;;10.80;9.15;;;;;;;;;;5076931;28;20371;-65
2023/06/21 00:27:27;;;;;;;10.77;8.63;;;;;;;;;;5076990;28;20871;-65
2023/06/21 00:29:53;;;;;;;10.30;9.27;;;;;;;;;;5078469;28;20836;-65
2023/06/21 00:32:19;;;;;;;9.82;8.80;;;;;;;;;;5077274;28;20723;-65
2023/06/21 00:34:47;;;;;;;10.30;8.85;;;;;;;;;;5077685;28;20453;-66
2023/06/21 00:37:13;;;;;;;10.23;9.23;;;;;;;;;;5076593;28;20390;-65
2023/06/21 00:39:39;;;;;;;9.65;8.65;;;;;;;;;;5076853;28;20792;-65
2023/06/21 00:42:06;;;;;;;10.00;9.10;;;;;;;;;;5078318;28;20888;-65
2023/06/21 00:44:32;;;;;;;10.02;9.10;;;;;;;;;;5077492;28;20395;-65
2023/06/21 00:46:58;;;;;;;10.97;9.63;;;;;;;;;;5077899;28;20476;-68
2023/06/21 00:49:24;;;;;;;9.65;8.43;;;;;;;;;;5078787;28;20792;-65
2023/06/21 00:51:56;;;;;;;9.95;9.05;;;;;;;;;;5075849;28;20896;-65
2023/06/21 00:54:22;;;;;;;9.77;8.77;;;;;;;;;;5078894;28;20415;-65
2023/06/21 00:56:48;;;;;;;10.07;9.13;;;;;;;;;;5076417;28;20380;-66
2023/06/21 00:59:14;;;;;;;10.55;9.48;;;;;;;;;;5078093;28;20384;-65
2023/06/21 01:01:40;;;;;;;10.68;9.57;;;;;;;;;;5077888;28;20375;-65
2023/06/21 01:04:09;;;;;;;10.10;9.10;;;;;;;;;;5077347;28;20380;-65
2023/06/21 01:06:45;;;;;;;10.80;9.67;;;;;;;;;;5076891;28;20501;-65
2023/06/21 01:09:11;;;;;;;10.90;9.63;;;;;;;;;;5078018;28;20444;-65
2023/06/21 01:11:46;;;;;;;11.40;10.27;;;;;;;;;;5077647;28;20466;-65
2023/06/21 01:14:38;;;;;;;12.55;10.15;;;;;;;;;;5076970;28;20889;-65
2023/06/21 01:17:05;;;;;;;11.82;10.55;;;;;;;;;;5053220;28;20395;-65
2023/06/21 01:19:48;;;;;;;11.45;10.35;;;;;;;;;;5076716;28;20529;-65
2023/06/21 01:22:23;;;;;;;12.23;10.85;;;;;;;;;;5076940;28;20384;-67
2023/06/21 01:24:56;;;;;;;12.48;11.20;;;;;;;;;;5075448;28;20912;-65
2023/06/21 01:27:27;;;;;;;13.30;11.18;;;;;;;;;;5075111;28;20388;-65
2023/06/21 01:29:55;;;;;;;11.35;10.25;;;;;;;;;;5075780;28;20418;-65
2023/06/21 01:32:21;;;;;;;11.48;10.27;;;;;;;;;;5076730;28;20380;-65
2023/06/21 01:34:48;;;;;;;12.45;10.45;;;;;;;;;;5076849;28;20435;-65
2023/06/21 01:37:14;;;;;;;13.23;11.15;;;;;;;;;;5076838;28;20810;-65
2023/06/21 01:39:40;;;;;;;11.50;10.30;;;;;;;;;;5076165;28;20415;-65
2023/06/21 01:42:06;;;;;;;12.63;10.57;;;;;;;;;;5076267;28;20376;-65
2023/06/21 01:44:32;;;;;;;14.13;10.70;;;;;;;;;;5078601;28;20523;-65
2023/06/21 01:46:59;;;;;;;11.95;10.85;;;;;;;;;;5079900;28;20380;-64
2023/06/21 01:49:26;;;;;;;12.43;10.65;;;;;;;;;;5077950;28;20467;-65
2023/06/21 01:51:53;;;;;;;13.77;11.43;;;;;;;;;;5077645;28;20402;-65
2023/06/21 01:54:20;;;;;;;13.27;11.32;;;;;;;;;;5076744;28;20423;-65
2023/06/21 01:56:47;;;;;;;14.68;11.50;;;;;;;;;;5075659;28;20380;-65
2023/06/21 01:59:14;;;;;;;12.05;10.82;;;;;;;;;;5077306;28;20379;-65
2023/06/21 02:01:42;;;;;;;12.73;11.43;;;;;;;;;;5075970;28;20439;-65
2023/06/21 02:04:08;;;;;;;14.25;11.48;;;;;;;;;;5077479;28;20375;-65
2023/06/21 02:06:35;;;;;;;14.20;11.57;;;;;;;;;;5074134;28;20431;-65
2023/06/21 02:09:01;;;;;;;12.32;11.10;;;;;;;;;;5073863;28;20402;-65
2023/06/21 02:11:28;;;;;;;13.10;11.75;;;;;;;;;;5075382;28;20449;-65
2023/06/21 02:13:54;;;;;;;14.77;11.47;;;;;;;;;;5074427;28;20711;-65
2023/06/21 02:16:26;;;;;;;13.88;11.38;;;;;;;;;;5074694;28;20376;-65
2023/06/21 02:18:52;;;;;;;12.18;10.77;;;;;;;;;;5076442;28;20384;-65
2023/06/21 02:21:19;;;;;;;12.27;10.97;;;;;;;;;;5076841;28;20869;-65
2023/06/21 02:23:45;;;;;;;14.97;10.90;;;;;;;;;;5076015;28;20392;-65
2023/06/21 02:26:11;;;;;;;11.48;10.23;;;;;;;;;;5075526;28;20383;-66
2023/06/21 02:28:37;;;;;;;12.97;10.83;;;;;;;;;;5075024;28;20391;-65
2023/06/21 02:31:03;;;;;;;12.40;11.10;;;;;;;;;;5076128;28;20383;-65
2023/06/21 02:33:31;;;;;;;12.32;11.00;;;;;;;;;;5076191;28;20407;-65
2023/06/21 02:35:57;;;;;;;12.82;11.20;;;;;;;;;;5075924;28;20410;-65
2023/06/21 02:38:25;;;;;;;13.30;11.70;;;;;;;;;;5074647;28;20383;-65
2023/06/21 02:40:51;;;;;;;14.10;12.00;;;;;;;;;;5075844;28;20372;-65
2023/06/21 02:43:17;;;;;;;13.07;11.65;;;;;;;;;;5074482;28;20396;-65
2023/06/21 02:45:43;;;;;;;13.95;11.95;;;;;;;;;;5074456;28;20408;-65
2023/06/21 02:48:09;;;;;;;14.07;12.18;;;;;;;;;;5073941;28;20430;-65
2023/06/21 02:50:35;;;;;;;14.80;12.23;;;;;;;;;;5075855;28;20470;-65
2023/06/21 02:53:01;;;;;;;13.15;11.75;;;;;;;;;;5075222;28;20384;-65
2023/06/21 02:55:27;;;;;;;13.87;11.37;;;;;;;;;;5075309;28;20769;-65
2023/06/21 02:57:54;;;;;;;14.55;12.05;;;;;;;;;;5074200;28;20462;-66
2023/06/21 03:00:28;;;;;;;14.05;11.45;;;;;;;;;;5074369;28;20471;-65
2023/06/21 03:02:54;;;;;;;14.18;11.60;;;;;;;;;;5073469;28;20387;-65
2023/06/21 03:05:20;;;;;;;12.18;10.90;;;;;;;;;;5075515;28;20379;-66
2023/06/21 03:07:47;;;;;;;15.23;11.67;;;;;;;;;;5074823;28;20898;-66
2023/06/21 03:10:13;;;;;;;14.93;11.38;;;;;;;;;;5075050;28;20417;-65
2023/06/21 03:12:40;;;;;;;13.23;11.90;;;;;;;;;;5075197;28;20387;-65
2023/06/21 03:15:07;;;;;;;15.52;12.18;;;;;;;;;;5075785;28;20437;-66
2023/06/21 03:17:33;;;;;;;12.90;11.60;;;;;;;;;;5074811;28;20784;-65
2023/06/21 03:19:59;;;;;;;15.63;12.43;;;;;;;;;;5073755;28;20380;-64
2023/06/21 03:22:25;;;;;;;13.32;11.95;;;;;;;;;;5075336;28;20378;-64
2023/06/21 03:24:50;;;;;;;14.57;12.55;;;;;;;;;;5074215;28;20888;-65
2023/06/21 03:27:16;;;;;;;13.32;11.93;;;;;;;;;;5074512;28;20390;-66
2023/06/21 03:29:42;;;;;;;13.25;11.95;;;;;;;;;;5073130;28;20388;-66
2023/06/21 03:32:08;;;;;;;14.02;12.43;;;;;;;;;;5075903;28;20379;-65
2023/06/21 03:34:34;;;;;;;14.40;12.07;;;;;;;;;;5077370;28;20451;-66
2023/06/21 03:37:00;;;;;;;16.17;12.17;;;;;;;;;;5077343;28;20376;-65
2023/06/21 03:39:26;;;;;;;13.05;11.50;;;;;;;;;;5075626;28;20395;-65
2023/06/21 03:41:52;;;;;;;13.77;12.20;;;;;;;;;;5075357;28;20379;-65
2023/06/21 03:44:18;;;;;;;13.27;11.85;;;;;;;;;;5075356;28;20487;-65
2023/06/21 03:46:44;;;;;;;15.57;11.63;;;;;;;;;;5074646;28;20453;-66
2023/06/21 03:49:10;;;;;;;14.73;11.90;;;;;;;;;;5074510;28;20383;-66
2023/06/21 03:51:36;;;;;;;12.57;11.37;;;;;;;;;;5075322;28;20474;-65
2023/06/21 03:54:02;;;;;;;16.77;11.80;;;;;;;;;;5074815;28;20408;-66
2023/06/21 03:56:28;;;;;;;14.77;11.52;;;;;;;;;;5074737;28;20395;-65
2023/06/21 03:58:54;;;;;;;14.23;10.57;;;;;;;;;;5076056;28;20173;-66
2023/06/21 04:01:19;;;;;;;12.97;11.37;;;;;;;;;;5074902;28;20252;-66
2023/06/21 04:03:45;;;;;;;13.20;10.90;;;;;;;;;;5075282;28;20205;-66
2023/06/21 04:06:11;;;;;;;14.97;12.73;;;;;;;;;;5073457;28;20395;-65
2023/06/21 04:08:37;;;;;;;14.50;11.23;;;;;;;;;;5074349;28;20455;-66
2023/06/21 04:11:03;;;;;;;12.20;11.00;;;;;;;;;;5075468;28;20227;-65
2023/06/21 04:13:30;;;;;;;13.17;11.00;;;;;;;;;;5075273;28;20232;-65
2023/06/21 04:15:56;;;;;;;13.80;10.87;;;;;;;;;;5075481;28;20260;-65
2023/06/21 04:18:22;;;;;;;12.53;11.23;;;;;;;;;;5075404;28;20204;-64
2023/06/21 04:20:49;;;;;;;13.73;11.20;;;;;;;;;;5074233;28;20204;-64
2023/06/21 04:23:15;;;;;;;15.37;11.67;;;;;;;;;;5073095;28;20281;-63
2023/06/21 04:25:41;;;;;;;12.53;11.40;;;;;;;;;;5073934;28;20213;-64
2023/06/21 04:28:10;;;;;;;13.63;11.10;;;;;;;;;;5074885;28;20707;-64
2023/06/21 04:30:35;;;;;;;12.63;11.43;;;;;;;;;;5075634;28;20598;-64
2023/06/21 04:33:01;;;;;;;13.90;12.50;;;;;;;;;;5075772;28;20472;-64
2023/06/21 04:35:27;;;;;;;16.13;13.35;;;;;;;;;;5076321;28;20411;-64
2023/06/21 04:37:53;;;;;;;15.97;12.10;;;;;;;;;;5078253;28;20185;-64
2023/06/21 04:40:20;;;;;;;13.17;11.43;;;;;;;;;;5077261;28;20182;-63
2023/06/21 04:42:46;;;;;;;13.93;11.40;;;;;;;;;;5076717;28;20622;-65
2023/06/21 04:45:14;;;;;;;12.30;10.70;;;;;;;;;;5079240;28;20158;-64
2023/06/21 04:47:40;;;;;;;12.83;10.20;;;;;;;;;;5079117;28;20616;-65
2023/06/21 04:50:06;;;;;;;14.57;9.63;;;;;;;;;;5078882;28;20170;-64
2023/06/21 04:52:32;;;;;;;11.60;9.13;;;;;;;;;;5079345;28;20249;-63
2023/06/21 04:55:01;;;;;;;15.67;9.30;;;;;;;;;;5077758;28;20194;-69
2023/06/21 04:57:27;;;;;;;9.70;8.70;;;;;;;;;;5076074;28;20267;-65
2023/06/21 04:59:53;;;;;;;14.30;9.43;;;;;;;;;;5077657;28;20178;-65
2023/06/21 05:02:19;;;;;;;13.47;10.17;;;;;;;;;;5075608;28;20372;-64
2023/06/21 05:04:45;;;;;;;13.13;10.37;;;;;;;;;;5075578;28;20388;-65
2023/06/21 05:07:11;;;;;;;12.67;9.70;;;;;;;;;;5076424;28;20185;-65
2023/06/21 05:09:37;;;;;;;12.33;9.80;;;;;;;;;;5077444;28;20174;-65
2023/06/21 05:12:03;;;;;;;13.27;9.27;;;;;;;;;;5076248;28;20174;-65
2023/06/21 05:14:29;;;;;;;12.60;10.60;;;;;;;;;;5077448;28;20736;-65
2023/06/21 05:16:55;;;;;;;10.63;9.50;;;;;;;;;;5077866;28;20178;-64
2023/06/21 05:19:20;;;;;;;11.20;10.17;;;;;;;;;;5076223;28;20174;-65
2023/06/21 05:21:46;;;;;;;13.20;10.77;;;;;;;;;;5077359;28;20177;-64
2023/06/21 05:24:12;;;;;;;11.87;10.40;;;;;;;;;;5077301;28;20257;-64
2023/06/21 05:26:44;;;;;;;13.83;10.57;;;;;;;;;;5077503;28;20268;-64
2023/06/21 05:29:09;;;;;;;11.60;10.43;;;;;;;;;;5075498;28;20620;-65
2023/06/21 05:31:35;;;;;;;11.63;10.50;;;;;;;;;;5076160;28;20189;-64
2023/06/21 05:34:01;;;;;;;14.67;10.77;;;;;;;;;;5075817;28;20209;-67
2023/06/21 05:36:27;;;;;;;12.43;11.13;;;;;;;;;;5076191;28;20178;-70
2023/06/21 05:38:53;;;;;;;13.10;11.63;;;;;;;;;;5075863;28;20216;-65
2023/06/21 05:41:19;;;;;;;14.53;12.10;;;;;;;;;;5076564;28;20174;-65
2023/06/21 05:43:45;;;;;;;14.63;11.70;;;;;;;;;;5076707;28;20209;-64
2023/06/21 05:46:11;;;;;;;15.30;12.43;;;;;;;;;;5077389;28;20182;-65
2023/06/21 05:48:37;;;;;;;17.83;12.50;;;;;;;;;;5077522;28;20212;-65
2023/06/21 05:51:03;;;;;;;14.73;13.32;;;;;;;;;;5097372;22;20564;-69
2023/06/21 05:53:29;;;;;;;15.20;12.73;;;;;;;;;;5074369;28;20671;-69
2023/06/21 05:55:56;;;;;;;17.10;13.40;;;;;;;;;;5074338;28;20181;-69
2023/06/21 05:58:22;;;;;;;15.60;13.77;;;;;;;;;;5073099;28;20181;-68
2023/06/21 06:00:48;;;;;;;14.33;12.93;;;;;;;;;;5074253;28;20194;-69
2023/06/21 06:03:14;;;;;;;15.90;14.13;;;;;;;;;;5074217;28;20170;-69
2023/06/21 06:05:40;;;;;;;16.30;14.27;;;;;;;;;;5074164;28;20253;-69
2023/06/21 06:08:06;;;;;;;15.63;13.90;;;;;;;;;;5074304;28;20174;-69
2023/06/21 06:10:32;;;;;;;18.30;14.10;;;;;;;;;;5072659;28;20721;-69
2023/06/21 06:12:58;;;;;;;17.70;14.57;;;;;;;;;;5074003;28;20173;-69
2023/06/21 06:15:24;;;;;;;16.43;14.43;;;;;;;;;;5073853;28;20201;-69
2023/06/21 06:17:50;;;;;;;18.13;14.83;;;;;;;;;;5072650;28;20724;-69
2023/06/21 06:20:16;;;;;;;19.37;15.47;;;;;;;;;;5073810;28;20193;-69
2023/06/21 06:22:42;;;;;;;16.23;14.50;;;;;;;;;;5072471;28;20196;-69
2023/06/21 06:25:09;;;;;;;18.87;14.73;;;;;;;;;;5074241;28;20648;-69
2023/06/21 06:27:35;;;;;;;16.37;14.63;;;;;;;;;;5072347;28;20189;-69
2023/06/21 06:30:02;;;;;;;16.90;14.13;;;;;;;;;;5073574;28;20228;-69
2023/06/21 06:32:28;;;;;;;16.20;14.50;;;;;;;;;;5073792;28;20170;-69
2023/06/21 06:34:54;;;;;;;16.23;14.37;;;;;;;;;;5073589;28;20575;-69
2023/06/21 06:37:21;;;;;;;17.53;15.13;;;;;;;;;;5072252;28;20269;-69
2023/06/21 06:39:47;;;;;;;16.13;14.63;;;;;;;;;;5073413;28;20194;-69
2023/06/21 06:42:13;;;;;;;17.50;15.77;;;;;;;;;;5073406;28;20304;-69
2023/06/21 06:44:39;;;;;;;18.23;16.33;;;;;;;;;;5072104;28;20260;-69
2023/06/21 06:47:08;;;;;;;17.37;15.77;;;;;;;;;;5073342;28;20250;-69
2023/06/21 06:49:34;;;;;;;18.60;16.70;;;;;;;;;;5073134;28;20214;-69
2023/06/21 06:52:00;;;;;;;17.70;15.83;;;;;;;;;;5071848;28;20177;-69
2023/06/21 06:54:26;;;;;;;17.70;16.00;;;;;;;;;;5071422;28;20244;-69
2023/06/21 06:56:52;;;;;;;17.57;15.73;;;;;;;;;;5073190;28;20178;-69
2023/06/21 06:59:18;;;;;;;17.87;16.07;;;;;;;;;;5071822;28;20648;-69
2023/06/21 07:01:44;;;;;;;17.70;15.80;;;;;;;;;;5071888;28;20174;-69
2023/06/21 07:04:10;;;;;;;17.60;15.90;;;;;;;;;;5071793;28;20677;-69
2023/06/21 07:06:35;;;;;;;18.37;16.50;;;;;;;;;;5073111;28;20572;-69
2023/06/21 07:09:02;;;;;;;17.90;16.20;;;;;;;;;;5073234;28;20213;-69
2023/06/21 07:11:28;;;;;;;17.43;15.83;;;;;;;;;;5071714;28;20196;-69
2023/06/21 07:13:54;;;;;;;18.97;17.07;;;;;;;;;;5072884;28;20197;-69
2023/06/21 07:16:20;;;;;;;19.13;17.37;;;;;;;;;;5072974;28;20177;-69
2023/06/21 07:18:46;;;;;;;18.63;16.83;;;;;;;;;;5072943;28;20178;-69
2023/06/21 07:21:12;;;;;;;19.00;17.13;;;;;;;;;;5072992;28;20255;-69
2023/06/21 07:23:38;;;;;;;19.43;17.50;;;;;;;;;;5071647;28;20182;-69
2023/06/21 07:26:05;;;;;;;17.90;16.17;;;;;;;;;;5071545;28;20553;-68
2023/06/21 07:28:31;;;;;;;18.73;16.90;;;;;;;;;;5072852;28;20230;-69
2023/06/21 07:30:59;;;;;;;17.63;16.03;;;;;;;;;;5072981;28;20288;-68
2023/06/21 07:33:25;;;;;;;19.60;17.60;;;;;;;;;;5073329;28;20311;-69
2023/06/21 07:35:51;;;;;;;18.80;16.93;;;;;;;;;;5072799;28;20264;-68
2023/06/21 07:38:17;;;;;;;18.30;16.70;;;;;;;;;;5072770;28;20174;-68
2023/06/21 07:40:43;;;;;;;18.90;17.00;;;;;;;;;;5072732;28;20611;-69
2023/06/21 07:43:09;;;;;;;17.03;15.43;;;;;;;;;;5072796;28;20323;-69
2023/06/21 07:45:35;;;;;;;18.67;15.03;;;;;;;;;;5071473;28;20268;-69
2023/06/21 07:48:01;;;;;;;17.67;16.00;;;;;;;;;;5071361;28;20276;-69
2023/06/21 07:50:27;;;;;;;18.17;15.97;;;;;;;;;;5072417;28;20313;-69
2023/06/21 07:52:53;;;;;;;15.80;14.40;;;;;;;;;;5072716;28;20205;-68
2023/06/21 07:55:19;;;;;;;15.00;13.50;;;;;;;;;;5072984;28;20291;-69
2023/06/21 07:57:46;;;;;;;13.77;12.37;;;;;;;;;;5072837;28;20545;-69
2023/06/21 08:00:12;;;;;;;14.50;13.17;;;;;;;;;;5072653;28;20190;-69
2023/06/21 08:02:39;;;;;;;14.93;11.20;;;;;;;;;;5071448;28;20200;-68
2023/06/21 08:05:05;;;;;;;14.73;11.97;;;;;;;;;;5073322;28;20177;-68
2023/06/21 08:07:31;;;;;;;10.83;9.90;;;;;;;;;;5075164;28;20243;-68
2023/06/21 08:09:57;;;;;;;11.97;10.43;;;;;;;;;;5076355;28;20220;-68
2023/06/21 08:12:23;;;;;;;11.37;9.97;;;;;;;;;;5076332;28;20655;-68
2023/06/21 08:14:49;;;;;;;9.77;8.87;;;;;;;;;;5076536;28;20202;-68
2023/06/21 08:17:15;;;;;;;11.20;10.20;;;;;;;;;;5076788;28;20547;-69
2023/06/21 08:19:41;;;;;;;11.37;10.27;;;;;;;;;;5076080;28;20582;-69
2023/06/21 08:22:08;;;;;;;10.90;9.80;;;;;;;;;;5076306;28;20705;-68
2023/06/21 08:24:34;;;;;;;11.50;10.50;;;;;;;;;;5076173;28;20226;-67
2023/06/21 08:27:00;;;;;;;12.20;11.00;;;;;;;;;;5074678;28;20181;-68
2023/06/21 08:29:26;;;;;;;12.40;11.30;;;;;;;;;;5076463;28;20194;-68
2023/06/21 08:31:52;;;;;;;12.30;11.23;;;;;;;;;;5074629;28;20182;-68
2023/06/21 08:34:18;;;;;;;13.57;12.17;;;;;;;;;;5074492;28;20205;-68
2023/06/21 08:36:44;;;;;;;12.27;11.07;;;;;;;;;;5074592;28;20184;-68
2023/06/21 08:39:10;;;;;;;13.67;12.20;;;;;;;;;;5075989;28;20170;-68
2023/06/21 08:41:36;;;;;;;13.83;11.60;;;;;;;;;;5075904;28;20170;-68
2023/06/21 08:44:02;;;;;;;13.60;12.30;;;;;;;;;;5075700;28;20178;-70
2023/06/21 08:46:29;;;;;;;13.23;11.93;;;;;;;;;;5075765;28;20178;-69
2023/06/21 08:48:57;;;;;;;13.20;11.03;;;;;;;;;;5074215;28;20213;-69
2023/06/21 08:51:24;;;;;;;12.77;11.50;;;;;;;;;;5074103;28;20597;-69
2023/06/21 08:53:51;;;;;;;15.40;12.27;;;;;;;;;;5074161;28;20206;-69
2023/06/21 08:56:20;;;;;;;13.63;12.33;;;;;;;;;;5075619;28;20178;-69
2023/06/21 08:58:49;;;;;;;14.27;12.80;;;;;;;;;;5074190;28;20177;-69
2023/06/21 09:01:17;;;;;;;12.93;11.53;;;;;;;;;;5074008;28;20668;-69
2023/06/21 09:03:47;;;;;;;14.03;11.13;;;;;;;;;;5075341;28;20186;-68
2023/06/21 09:06:19;;;;;;;13.03;11.73;;;;;;;;;;5075653;28;20176;-69
2023/06/21 09:08:46;;;;;;;13.07;11.87;;;;;;;;;;5075520;28;20265;-69
2023/06/21 09:11:13;;;;;;;12.73;11.57;;;;;;;;;;5075096;28;20202;-69
2023/06/21 09:13:40;;;;;;;11.33;10.23;;;;;;;;;;5075400;28;20204;-69
2023/06/21 09:16:08;;;;;;;13.47;11.33;;;;;;;;;;5073527;28;20182;-69
2023/06/21 09:18:39;;;;;;;12.30;11.13;;;;;;;;;;5075291;28;20166;-69
2023/06/21 09:21:06;;;;;;;14.03;10.60;;;;;;;;;;5074990;28;20193;-69
2023/06/21 09:23:32;;;;;;;12.23;11.07;;;;;;;;;;5075199;28;20178;-69
2023/06/21 09:25:58;;;;;;;11.60;10.37;;;;;;;;;;5074883;28;20227;-69
2023/06/21 09:28:24;;;;;;;13.83;11.10;;;;;;;;;;5073622;28;20213;-70
2023/06/21 09:30:50;;;;;;;12.97;11.13;;;;;;;;;;5073479;28;20201;-69
2023/06/21 09:33:16;;;;;;;11.90;10.70;;;;;;;;;;5074726;28;20190;-69
2023/06/21 09:35:44;;;;;;;11.77;10.57;;;;;;;;;;5073502;28;20178;-69
2023/06/21 09:38:23;;;;;;;13.07;11.67;;;;;;;;;;5073397;28;20670;-69
2023/06/21 09:40:49;;;;;;;11.57;10.47;;;;;;;;;;5074595;28;20193;-69
2023/06/21 09:43:15;;;;;;;12.77;9.80;;;;;;;;;;5074594;28;20243;-69
2023/06/21 09:45:41;;;;;;;11.80;10.57;;;;;;;;;;5073285;28;20643;-69
2023/06/21 09:48:07;;;;;;;13.43;10.17;;;;;;;;;;5073176;28;20177;-69
2023/06/21 09:50:37;;;;;;;11.10;10.03;;;;;;;;;;5074306;28;20213;-69
2023/06/21 09:53:03;;;;;;;11.60;10.60;;;;;;;;;;5073177;28;20259;-69
2023/06/21 09:55:29;;;;;;;12.73;10.53;;;;;;;;;;5074481;28;20232;-70
2023/06/21 09:57:57;;;;;;;11.07;9.47;;;;;;;;;;5073239;28;20185;-70
2023/06/21 10:00:23;;;;;;;9.97;9.07;;;;;;;;;;5074465;28;20205;-69
2023/06/21 10:02:53;;;;;;;9.83;9.00;;;;;;;;;;5074535;28;20174;-68
2023/06/21 10:05:19;;;;;;;13.37;9.83;;;;;;;;;;5073064;28;20186;-69
2023/06/21 10:07:46;;;;;;;12.37;9.30;;;;;;;;;;5074221;28;20260;-69
2023/06/21 10:10:12;;;;;;;10.83;9.83;;;;;;;;;;5074087;28;20255;-70
2023/06/21 10:12:48;;;;;;;10.47;9.47;;;;;;;;;;5072773;28;20189;-69
2023/06/21 10:15:14;;;;;;;;;;;;;;;;;;5074573;28;20028;-69
2023/06/21 10:17:40;;;;;;;;;;;;;;;;;;5073041;28;20282;-69
2023/06/21 10:20:06;;;;;;;;;;;;;;;;;;5074164;28;19910;-70
2023/06/21 10:22:32;;;;;;;;;;;;;;;;;;5074315;28;19916;-69
2023/06/21 10:24:58;;;;;;;;;;;;;;;;;;5072865;28;19949;-70
2023/06/21 10:27:24;;;;;;;;;;;;;;;;;;5072789;28;20277;-69
2023/06/21 10:29:50;;;;;;;;;;;;;;;;;;5073538;28;19957;-69
2023/06/21 10:32:15;;;;;;;;;;;;;;;;;;5074300;28;19905;-69
2023/06/21 10:34:47;;;;;;;9.70;8.50;;;;;;;;;;5073505;28;20202;-69
2023/06/21 10:37:16;;;;;;;9.37;8.57;;;;;;;;;;5073414;28;20185;-69
2023/06/21 10:39:42;;;;;;;8.53;7.83;;;;;;;;;;5073758;28;20229;-69
2023/06/21 10:42:09;;;;;;;13.30;8.43;;;;;;;;;;5072227;28;20177;-69
2023/06/21 10:44:36;;;;;;;10.87;9.87;;;;;;;;;;5073465;28;20184;-69
2023/06/21 10:47:02;;;;;;;10.20;8.87;;;;;;;;;;5073618;28;20181;-69
2023/06/21 10:49:29;;;;;;;10.03;9.13;;;;;;;;;;5071935;28;20215;-69
2023/06/21 10:51:56;;;;;;;10.40;9.27;;;;;;;;;;5073657;28;20638;-69
2023/06/21 10:54:22;;;;;;;9.90;8.50;;;;;;;;;;5073663;28;20232;-69
2023/06/21 10:56:48;;;;;;;9.07;8.27;;;;;;;;;;5073294;28;20169;-69
2023/06/21 10:59:14;;;;;;;9.13;8.33;;;;;;;;;;5073403;28;20181;-69
2023/06/21 11:01:40;;;;;;;9.00;8.27;;;;;;;;;;5073487;28;20178;-70
2023/06/21 11:04:06;;;;;;;8.40;7.70;;;;;;;;;;5073066;28;20180;-69
2023/06/21 11:06:34;;;;;;;8.33;7.47;;;;;;;;;;5073165;28;20182;-69
2023/06/21 11:09:11;;;;;;;8.30;7.60;;;;;;;;;;5073379;28;20182;-69
2023/06/21 11:11:40;;;;;;;11.00;10.10;;;;;;;;;;5073407;28;20161;-69
2023/06/21 11:14:06;;;;;;;10.60;9.70;;;;;;;;;;5073393;28;20209;-69
2023/06/21 11:16:33;;;;;;;9.97;8.97;;;;;;;;;;5073419;28;20196;-69
2023/06/21 11:19:02;;;;;;;11.33;10.30;;;;;;;;;;5071679;28;20221;-70
2023/06/21 11:21:47;;;;;;;9.80;8.80;;;;;;;;;;5073334;28;20235;-69
2023/06/21 11:24:15;;;;;;;9.13;8.27;;;;;;;;;;5073020;28;20174;-70
2023/06/21 11:27:01;;;;;;;10.77;9.20;;;;;;;;;;5073159;28;20182;-69
2023/06/21 11:29:39;;;;;;;9.80;8.93;;;;;;;;;;5071541;28;20672;-69
2023/06/21 11:32:09;;;;;;;9.33;8.37;;;;;;;;;;5073603;28;20166;-70
2023/06/21 11:34:35;;;;;;;8.90;8.20;;;;;;;;;;5072975;28;20204;-69
2023/06/21 11:37:19;;;;;;;9.00;8.00;;;;;;;;;;5073386;28;20547;-69
2023/06/21 11:39:45;;;;;;;8.33;6.87;;;;;;;;;;5073222;28;20197;-69
2023/06/21 11:42:15;;;;;;;7.90;7.00;;;;;;;;;;5077052;28;20251;-69
2023/06/21 11:44:41;;;;;;;8.23;7.43;;;;;;;;;;5077208;28;20186;-69
2023/06/21 11:47:17;;;;;;;9.80;8.00;;;;;;;;;;5075617;28;20181;-69
2023/06/21 11:49:59;;;;;;;8.73;7.83;;;;;;;;;;5076655;28;20217;-69
2023/06/21 11:52:31;;;;;;;8.77;7.97;;;;;;;;;;5077693;28;20162;-69
2023/06/21 11:54:59;;;;;;;8.73;8.03;;;;;;;;;;5076675;28;20258;-69
2023/06/21 11:57:25;;;;;;;11.40;8.63;;;;;;;;;;5074074;28;20387;-69
2023/06/21 11:59:51;;;;;;;8.98;8.20;;;;;;;;;;5074148;28;20388;-69
2023/06/21 12:02:21;;;;;;;8.60;7.80;;;;;;;;;;5075765;28;20384;-69
2023/06/21 12:04:49;;;;;;;9.25;8.25;;;;;;;;;;5075842;28;20406;-69
2023/06/21 12:07:16;;;;;;;8.73;8.02;;;;;;;;;;5075380;28;20386;-69
2023/06/21 12:09:48;;;;;;;8.27;7.47;;;;;;;;;;5076070;28;20202;-69
2023/06/21 12:12:14;;;;;;;7.50;6.90;;;;;;;;;;5075129;28;20165;-69
2023/06/21 12:14:40;;;;;;;8.63;7.60;;;;;;;;;;5076418;28;20255;-69
2023/06/21 12:17:06;;;;;;;8.13;7.43;;;;;;;;;;5076339;28;20178;-69
2023/06/21 12:19:32;;;;;;;8.20;7.50;;;;;;;;;;5076123;28;20661;-69
2023/06/21 12:22:02;;;;;;;8.73;7.83;;;;;;;;;;5076366;28;20192;-69
2023/06/21 12:24:28;;;;;;;8.20;7.50;;;;;;;;;;5076364;28;20543;-68
2023/06/21 12:26:56;;;;;;;8.43;7.63;;;;;;;;;;5076164;28;20182;-69
2023/06/21 12:29:23;;;;;;;9.00;8.20;;;;;;;;;;5074785;28;20632;-69
2023/06/21 12:31:49;;;;;;;8.87;7.43;;;;;;;;;;5076096;28;20174;-69
2023/06/21 12:34:18;;;;;;;8.73;6.90;;;;;;;;;;5075917;28;20667;-69
2023/06/21 12:36:47;;;;;;;8.60;7.80;;;;;;;;;;5076091;28;20213;-69
2023/06/21 12:39:14;;;;;;;10.43;7.67;;;;;;;;;;5074429;28;20269;-70
2023/06/21 12:41:43;;;;;;;8.65;7.88;;;;;;;;;;5075864;28;20639;-69
2023/06/21 12:44:24;;;;;;;8.30;7.60;;;;;;;;;;5073277;28;20405;-70
2023/06/21 12:46:51;;;;;;;7.37;6.67;;;;;;;;;;5075734;28;20178;-69
2023/06/21 12:49:17;;;;;;;8.60;7.90;;;;;;;;;;5074265;28;20380;-70
2023/06/21 12:51:45;;;;;;;9.40;8.53;;;;;;;;;;5074384;28;20384;-69
2023/06/21 12:54:13;;;;;;;9.70;8.90;;;;;;;;;;5098220;22;20534;-67
2023/06/21 12:56:40;;;;;;;8.85;8.05;;;;;;;;;;5074762;28;20384;-65
2023/06/21 12:59:06;;;;;;;9.48;8.68;;;;;;;;;;5075865;28;20170;-65
2023/06/21 13:01:33;;;;;;;11.17;8.47;;;;;;;;;;5075968;28;20177;-67
2023/06/21 13:04:00;;;;;;;9.03;8.23;;;;;;;;;;5075917;28;20198;-66
2023/06/21 13:06:26;;;;;;;9.43;8.50;;;;;;;;;;5074485;28;20174;-66
2023/06/21 13:08:53;;;;;;;9.13;7.05;;;;;;;;;;5075655;28;20182;-66
2023/06/21 13:11:19;;;;;;;8.43;7.72;;;;;;;;;;5076732;28;20211;-65
2023/06/21 13:13:45;;;;;;;8.18;7.43;;;;;;;;;;5075054;28;20297;-66
2023/06/21 13:16:12;;;;;;;9.32;8.40;;;;;;;;;;5076472;28;20639;-65
2023/06/21 13:18:44;;;;;;;9.10;8.20;;;;;;;;;;5075341;28;20166;-65
2023/06/21 13:21:10;;;;;;;9.03;7.97;;;;;;;;;;5073992;28;20636;-65
2023/06/21 13:23:36;;;;;;;8.52;7.82;;;;;;;;;;5076685;28;20623;-65
2023/06/21 13:26:02;;;;;;;9.45;8.55;;;;;;;;;;5075616;28;20201;-65
2023/06/21 13:28:28;;;;;;;10.02;9.02;;;;;;;;;;5075487;28;20208;-65
2023/06/21 13:30:54;;;;;;;10.35;8.60;;;;;;;;;;5074278;28;20268;-65
2023/06/21 13:33:20;;;;;;;9.73;8.85;;;;;;;;;;5075936;28;20634;-65
2023/06/21 13:35:47;;;;;;;9.43;7.47;;;;;;;;;;5074029;28;20303;-65
2023/06/21 13:38:13;;;;;;;8.43;7.50;;;;;;;;;;5079348;28;20260;-65
2023/06/21 13:40:40;;;;;;;8.10;7.28;;;;;;;;;;5077897;28;20239;-65
2023/06/21 13:43:06;;;;;;;8.50;7.78;;;;;;;;;;5078862;28;20226;-64
2023/06/21 13:45:32;;;;;;;9.52;8.73;;;;;;;;;;5075243;28;20614;-65
2023/06/21 13:47:58;;;;;;;7.68;7.05;;;;;;;;;;5074750;28;20173;-64
2023/06/21 13:50:24;;;;;;;8.98;6.95;;;;;;;;;;5074964;28;20170;-65
2023/06/21 13:52:50;;;;;;;8.02;7.30;;;;;;;;;;5073548;28;20235;-65
2023/06/21 13:55:16;;;;;;;9.30;6.75;;;;;;;;;;5075110;28;20222;-64
2023/06/21 13:57:42;;;;;;;7.63;6.78;;;;;;;;;;5073526;28;20272;-64
2023/06/21 14:00:14;;;;;;;7.55;6.88;;;;;;;;;;5075030;28;20602;-64
2023/06/21 14:02:44;;;;;;;7.22;6.50;;;;;;;;;;5072547;28;20174;-65
2023/06/21 14:05:11;;;;;;;6.85;6.15;;;;;;;;;;5073189;28;20206;-65
2023/06/21 14:07:37;;;;;;;6.82;6.32;;;;;;;;;;5074899;28;20183;-65
2023/06/21 14:10:04;;;;;;;7.00;6.40;;;;;;;;;;5074472;28;20212;-65
2023/06/21 14:12:29;;;;;;;6.63;5.88;;;;;;;;;;5073302;28;20636;-65
2023/06/21 14:14:56;;;;;;;6.38;5.85;;;;;;;;;;5074062;28;20205;-65
2023/06/21 14:17:22;;;;;;;6.70;6.07;;;;;;;;;;5075589;28;20173;-64
2023/06/21 14:19:48;;;;;;;7.18;6.57;;;;;;;;;;5075285;28;20166;-65
2023/06/21 14:22:16;;;;;;;6.70;6.18;;;;;;;;;;5080842;28;20178;-64
2023/06/21 14:24:42;;;;;;;7.65;6.80;;;;;;;;;;5072987;28;20197;-65
2023/06/21 14:27:08;;;;;;;7.10;6.50;;;;;;;;;;5072929;28;20695;-65